Time;durP1;ratioP1;P1;durP2;ratioP2;P2;SDS_P1;SDS_P2;PMS_P1;PMS_P2;Temp;Humidity;BMP_temperature;BMP_pressure;BME280_temperature;BME280_humidity;BME280_pressure;Samples;Min_cycle;Max_cycle;Signal;HPM_P1;HPM_P2
2022/06/09 00:00:30;;;;;;;;;;;15.40;99.90;;;;;;4316047;33;44135;-87
2022/06/09 00:02:58;;;;;;;;;;;15.40;99.90;;;;;;4302680;33;45171;-87
2022/06/09 00:05:29;;;;;;;;;;;15.40;99.90;;;;;;4303231;33;43466;-85
2022/06/09 00:07:56;;;;;;;;;;;15.40;99.90;;;;;;4302880;33;45889;-87
2022/06/09 00:10:30;;;;;;;;;;;15.40;99.90;;;;;;4302903;33;44900;-86
2022/06/09 00:12:58;;;;;;;;;;;15.40;99.90;;;;;;4316040;33;44631;-83
2022/06/09 00:15:27;;;;;;;;;;;15.40;99.90;;;;;;4315927;33;42968;-84
2022/06/09 00:17:55;;;;;;;;;;;15.40;99.90;;;;;;4303119;33;44211;-84
2022/06/09 00:20:22;;;;;;;;;;;15.40;99.90;;;;;;4302777;33;44206;-87
2022/06/09 00:22:49;;;;;;;;;;;15.30;99.90;;;;;;4302386;33;43297;-84
2022/06/09 00:25:16;;;;;;;;;;;15.30;99.90;;;;;;4302487;33;43543;-84
2022/06/09 00:27:44;;;;;;;;;;;15.40;99.90;;;;;;4302915;33;44032;-86
2022/06/09 00:30:11;;;;;;;;;;;15.30;99.90;;;;;;4315422;33;43997;-87
2022/06/09 00:32:39;;;;;;;;;;;15.30;99.90;;;;;;4316050;33;43494;-86
2022/06/09 00:35:06;;;;;;;;;;;15.30;99.90;;;;;;4303509;33;44606;-87
2022/06/09 00:37:34;;;;;;;;;;;15.30;99.90;;;;;;4318845;33;44744;-85
2022/06/09 00:40:03;;;;;;;;;;;15.30;99.90;;;;;;4318338;33;43346;-84
2022/06/09 00:42:31;;;;;;;;;;;15.30;99.90;;;;;;4318646;33;45149;-85
2022/06/09 00:45:18;;;;;;;;;;;15.30;99.90;;;;;;4305298;33;43040;-87
2022/06/09 00:47:45;;;;;;;;;;;15.30;99.90;;;;;;4318766;33;45104;-86
2022/06/09 00:50:19;;;;;;;;;;;15.20;99.90;;;;;;4305568;33;46209;-87
2022/06/09 00:52:48;;;;;;;;;;;15.30;99.90;;;;;;4318743;33;41987;-86
2022/06/09 00:55:19;;;;;;;;;;;15.20;99.90;;;;;;4305179;33;43442;-85
2022/06/09 00:57:47;;;;;;;;;;;15.20;99.90;;;;;;4305320;33;43625;-87
2022/06/09 01:00:21;;;;;;;;;;;15.20;99.90;;;;;;4318527;33;45731;-87
2022/06/09 01:02:50;;;;;;;;;;;15.20;99.90;;;;;;4302628;33;43521;-85
2022/06/09 01:05:22;;;;;;;;;;;15.20;99.90;;;;;;4303544;33;44313;-85
2022/06/09 01:07:51;;;;;;;;;;;15.20;99.90;;;;;;4303861;33;45808;-87
2022/06/09 01:10:19;;;;;;;;;;;15.20;99.90;;;;;;4302323;33;44298;-85
2022/06/09 01:12:47;;;;;;;;;;;15.20;99.90;;;;;;4302452;33;42575;-85
2022/06/09 01:15:17;;;;;;;;;;;15.20;99.90;;;;;;4302765;33;45198;-86
2022/06/09 01:17:56;;;;;;;;;;;15.20;99.90;;;;;;4302742;33;43914;-88
2022/06/09 01:20:41;;;;;;;;;;;15.20;99.90;;;;;;4303763;33;43470;-87
2022/06/09 01:23:28;;;;;;;;;;;15.20;99.90;;;;;;4302792;33;44000;-86
2022/06/09 01:26:04;;;;;;;;;;;15.20;99.90;;;;;;4304738;33;20450;-86
2022/06/09 01:28:36;;;;;;;;;;;15.20;99.90;;;;;;4302495;33;43533;-85
2022/06/09 01:31:04;;;;;;;;;;;15.10;99.90;;;;;;4303374;33;43053;-88
2022/06/09 01:33:38;;;;;;;;;;;15.20;99.90;;;;;;4302526;33;43281;-87
2022/06/09 01:36:27;;;;;;;;;;;15.10;99.90;;;;;;4303111;33;43923;-87
2022/06/09 01:38:57;;;;;;;;;;;15.20;99.90;;;;;;4302491;33;44182;-87
2022/06/09 01:41:24;;;;;;;;;;;15.10;99.90;;;;;;4301810;33;42529;-84
2022/06/09 01:43:58;;;;;;;;;;;15.20;99.90;;;;;;4302335;33;45045;-85
2022/06/09 01:46:30;;;;;;;;;;;15.20;99.90;;;;;;4302518;33;46214;-87
2022/06/09 01:49:24;;;;;;;;;;;15.10;99.90;;;;;;4302523;33;43653;-86
2022/06/09 01:51:52;;;;;;;;;;;15.10;99.90;;;;;;4300229;33;44067;-88
2022/06/09 01:54:21;;;;;;;;;;;15.10;99.90;;;;;;4303018;33;43876;-86
2022/06/09 01:56:57;;;;;;;;;;;15.10;99.90;;;;;;4302119;33;45736;-84
2022/06/09 01:59:26;;;;;;;;;;;15.10;99.90;;;;;;4302021;33;45711;-87
2022/06/09 02:01:59;;;;;;;;;;;15.10;99.90;;;;;;4305824;33;44329;-87
2022/06/09 02:04:33;;;;;;;;;;;15.10;99.90;;;;;;4304964;33;44363;-87
2022/06/09 02:07:01;;;;;;;;;;;15.10;99.90;;;;;;4304692;33;44682;-88
2022/06/09 02:09:30;;;;;;;;;;;15.10;99.90;;;;;;4304620;33;43230;-88
2022/06/09 02:12:01;;;;;;;;;;;15.10;99.90;;;;;;4303839;33;45909;-86
2022/06/09 02:14:29;;;;;;;;;;;15.10;99.90;;;;;;4304318;33;44468;-86
2022/06/09 02:16:57;;;;;;;;;;;15.10;99.90;;;;;;4317103;33;44925;-87
2022/06/09 02:19:28;;;;;;;;;;;15.10;99.90;;;;;;4304288;33;43797;-86
2022/06/09 02:21:58;;;;;;;;;;;15.10;99.90;;;;;;4304191;33;45236;-88
2022/06/09 02:24:27;;;;;;;;;;;15.10;99.90;;;;;;4304294;33;44342;-87
2022/06/09 02:26:54;;;;;;;;;;;15.10;99.90;;;;;;4304789;33;20012;-88
2022/06/09 02:29:21;;;;;;;;;;;15.10;99.90;;;;;;4317285;33;43418;-88
2022/06/09 02:31:51;;;;;;;;;;;15.10;99.90;;;;;;4303837;33;42867;-87
2022/06/09 02:34:18;;;;;;;;;;;15.10;99.90;;;;;;4303928;33;42854;-85
2022/06/09 02:36:46;;;;;;;;;;;15.10;99.90;;;;;;4303984;33;43567;-86
2022/06/09 02:39:13;;;;;;;;;;;15.10;99.90;;;;;;4304068;33;43695;-86
2022/06/09 02:41:40;;;;;;;;;;;15.10;99.90;;;;;;4317077;33;45004;-85
2022/06/09 02:44:07;;;;;;;;;;;15.10;99.90;;;;;;4303501;33;43746;-82
2022/06/09 02:46:34;;;;;;;;;;;15.10;99.90;;;;;;4303957;33;44198;-85
2022/06/09 02:49:01;;;;;;;;;;;15.10;99.90;;;;;;4316585;33;43511;-86
2022/06/09 02:51:33;;;;;;;;;;;15.10;99.90;;;;;;4316784;33;42627;-86
2022/06/09 02:54:05;;;;;;;;;;;15.10;99.90;;;;;;4316407;33;46101;-86
2022/06/09 02:56:32;;;;;;;;;;;15.10;99.90;;;;;;4303778;33;44995;-86
2022/06/09 02:58:59;;;;;;;;;;;15.10;99.90;;;;;;4303057;33;43164;-87
2022/06/09 03:01:27;;;;;;;;;;;15.10;99.90;;;;;;4316688;33;44285;-86
2022/06/09 03:03:54;;;;;;;;;;;15.10;99.90;;;;;;4303863;33;43263;-85
2022/06/09 03:06:21;;;;;;;;;;;15.10;99.90;;;;;;4303312;33;44251;-87
2022/06/09 03:08:49;;;;;;;;;;;15.00;99.90;;;;;;4316716;33;44199;-86
2022/06/09 03:11:16;;;;;;;;;;;15.10;99.90;;;;;;4303503;33;45478;-85
2022/06/09 03:13:43;;;;;;;;;;;15.10;99.90;;;;;;4303185;33;45312;-85
2022/06/09 03:16:11;;;;;;;;;;;15.00;99.90;;;;;;4302993;33;44921;-86
2022/06/09 03:18:38;;;;;;;;;;;15.00;99.90;;;;;;4303468;33;44795;-86
2022/06/09 03:21:05;;;;;;;;;;;15.00;99.90;;;;;;4316601;33;43113;-83
2022/06/09 03:23:32;;;;;;;;;;;15.00;99.90;;;;;;4315933;33;44156;-82
2022/06/09 03:26:00;;;;;;;;;;;15.00;99.90;;;;;;4303045;33;42503;-86
2022/06/09 03:28:30;;;;;;;;;;;15.00;99.90;;;;;;4303904;33;43478;-86
2022/06/09 03:30:59;;;;;;;;;;;15.00;99.90;;;;;;4302921;33;43811;-84
2022/06/09 03:33:26;;;;;;;;;;;15.00;99.90;;;;;;4302930;33;43300;-86
2022/06/09 03:35:54;;;;;;;;;;;15.00;99.90;;;;;;4303124;33;44631;-86
2022/06/09 03:38:24;;;;;;;;;;;15.00;99.90;;;;;;4303221;33;45717;-85
2022/06/09 03:40:54;;;;;;;;;;;15.00;99.90;;;;;;4302823;33;43789;-86
2022/06/09 03:43:21;;;;;;;;;;;15.00;99.90;;;;;;4303210;33;44167;-86
2022/06/09 03:45:52;;;;;;;;;;;15.00;99.90;;;;;;4316126;33;43215;-86
2022/06/09 03:48:19;;;;;;;;;;;15.00;99.90;;;;;;4316254;33;43825;-86
2022/06/09 03:50:46;;;;;;;;;;;15.00;99.90;;;;;;4316089;33;44112;-85
2022/06/09 03:53:13;;;;;;;;;;;14.90;99.90;;;;;;4303194;33;43951;-86
2022/06/09 03:55:40;;;;;;;;;;;15.00;99.90;;;;;;4315670;33;42526;-85
2022/06/09 03:58:07;;;;;;;;;;;15.00;99.90;;;;;;4302511;33;44829;-83
2022/06/09 04:00:40;;;;;;;;;;;15.00;99.90;;;;;;4302616;33;43851;-84
2022/06/09 04:03:07;;;;;;;;;;;14.90;99.90;;;;;;4302416;33;43546;-86
2022/06/09 04:05:36;;;;;;;;;;;14.90;99.90;;;;;;4303081;33;44938;-85
2022/06/09 04:08:03;;;;;;;;;;;15.00;99.90;;;;;;4315571;33;43029;-85
2022/06/09 04:10:31;;;;;;;;;;;14.90;99.90;;;;;;4314844;33;44808;-86
2022/06/09 04:12:59;;;;;;;;;;;14.90;99.90;;;;;;4302745;33;44702;-88
2022/06/09 04:15:28;;;;;;;;;;;14.90;99.90;;;;;;4316038;33;42666;-85
2022/06/09 04:17:55;;;;;;;;;;;14.90;99.90;;;;;;4302867;33;44527;-84
2022/06/09 04:20:24;;;;;;;;;;;14.90;99.90;;;;;;4315860;33;45853;-85
2022/06/09 04:22:52;;;;;;;;;;;14.90;99.90;;;;;;4302631;33;43463;-85
2022/06/09 04:25:20;;;;;;;;;;;14.90;99.90;;;;;;4302359;33;43305;-86
2022/06/09 04:27:50;;;;;;;;;;;14.80;99.90;;;;;;4303152;33;44158;-85
2022/06/09 04:30:17;;;;;;;;;;;14.90;99.90;;;;;;4302681;33;44724;-85
2022/06/09 04:32:52;;;;;;;;;;;14.90;99.90;;;;;;4315553;33;44123;-85
2022/06/09 04:35:19;;;;;;;;;;;14.90;99.90;;;;;;4302238;33;44737;-86
2022/06/09 04:38:02;;;;;;;;;;;14.90;99.90;;;;;;4315531;33;43171;-83
2022/06/09 04:40:32;;;;;;;;;;;14.90;99.90;;;;;;4302717;33;44331;-87
2022/06/09 04:42:59;;;;;;;;;;;14.90;99.90;;;;;;4302615;33;44752;-85
2022/06/09 04:45:27;;;;;;;;;;;14.90;99.90;;;;;;4302333;33;44205;-86
2022/06/09 04:47:59;;;;;;;;;;;14.90;99.90;;;;;;4315730;33;44277;-87
2022/06/09 04:50:26;;;;;;;;;;;14.90;99.90;;;;;;4302575;33;43482;-85
2022/06/09 04:52:59;;;;;;;;;;;14.90;99.90;;;;;;4315552;33;43451;-85
2022/06/09 04:55:26;;;;;;;;;;;14.90;99.90;;;;;;4302640;33;43982;-82
2022/06/09 04:57:58;;;;;;;;;;;14.90;99.90;;;;;;4302480;33;45729;-85
2022/06/09 05:00:29;;;;;;;;;;;14.90;99.90;;;;;;4315740;33;42679;-86
2022/06/09 05:02:57;;;;;;;;;;;14.90;99.90;;;;;;4315297;33;44076;-84
2022/06/09 05:05:34;;;;;;;;;;;14.80;99.90;;;;;;4315237;33;43058;-85
2022/06/09 05:08:04;;;;;;;;;;;14.90;99.90;;;;;;4302952;33;43884;-85
2022/06/09 05:10:32;;;;;;;;;;;14.90;99.90;;;;;;4302146;33;42517;-82
2022/06/09 05:13:05;;;;;;;;;;;14.90;99.90;;;;;;4302639;33;44139;-87
2022/06/09 05:15:35;;;;;;;;;;;14.80;99.90;;;;;;4302618;33;45796;-83
2022/06/09 05:18:05;;;;;;;;;;;14.80;99.90;;;;;;4315698;33;43486;-85
2022/06/09 05:20:36;;;;;;;;;;;14.80;99.90;;;;;;4302818;33;45383;-86
2022/06/09 05:23:04;;;;;;;;;;;14.80;99.90;;;;;;4304980;33;44022;-88
2022/06/09 05:25:31;;;;;;;;;;;14.80;99.90;;;;;;4304791;33;43309;-86
2022/06/09 05:27:59;;;;;;;;;;;14.80;99.90;;;;;;4304917;33;45532;-85
2022/06/09 05:30:26;;;;;;;;;;;14.80;99.90;;;;;;4318084;33;45096;-84
2022/06/09 05:32:55;;;;;;;;;;;14.80;99.90;;;;;;4304971;33;44875;-84
2022/06/09 05:35:26;;;;;;;;;;;14.80;99.90;;;;;;4304919;33;44207;-85
2022/06/09 05:46:15;;;;;;;;;;;14.80;99.90;;;;;;4317664;33;43888;-85
2022/06/09 05:48:43;;;;;;;;;;;14.80;99.90;;;;;;4317556;33;43170;-85
2022/06/09 05:51:11;;;;;;;;;;;14.80;99.90;;;;;;4304491;33;43786;-84
2022/06/09 05:53:38;;;;;;;;;;;14.80;99.90;;;;;;4317580;33;44070;-87
2022/06/09 05:56:06;;;;;;;;;;;14.80;99.90;;;;;;4317793;33;44256;-82
2022/06/09 05:58:34;;;;;;;;;;;14.80;99.90;;;;;;4304453;33;43884;-86
2022/06/09 06:01:04;;;;;;;;;;;14.80;99.90;;;;;;4305124;33;20387;-87
2022/06/09 06:03:31;;;;;;;;;;;14.80;99.90;;;;;;4304417;33;44815;-87
2022/06/09 06:08:44;;;;;;;;;;;14.80;99.90;;;;;;4317624;33;43182;-85
2022/06/09 06:11:17;;;;;;;;;;;14.80;99.90;;;;;;4303948;33;43088;-85
2022/06/09 06:13:50;;;;;;;;;;;14.80;99.90;;;;;;4304759;33;45264;-85
2022/06/09 06:16:17;;;;;;;;;;;14.80;99.90;;;;;;4304616;33;44193;-83
2022/06/09 06:19:01;;;;;;;;;;;14.80;99.90;;;;;;4317546;33;44235;-89
2022/06/09 06:21:32;;;;;;;;;;;14.90;99.90;;;;;;4304100;33;45901;-87
2022/06/09 06:23:59;;;;;;;;;;;14.80;99.90;;;;;;4304120;33;44207;-85
2022/06/09 06:26:35;;;;;;;;;;;14.80;99.90;;;;;;4305031;33;44226;-88
2022/06/09 06:29:03;;;;;;;;;;;14.90;99.90;;;;;;4317153;33;43486;-88
2022/06/09 06:31:33;;;;;;;;;;;14.90;99.90;;;;;;4318705;33;20002;-86
2022/06/09 06:34:03;;;;;;;;;;;14.90;99.90;;;;;;4303915;33;45104;-89
2022/06/09 06:36:36;;;;;;;;;;;14.90;99.90;;;;;;4304012;33;44289;-84
2022/06/09 06:39:06;;;;;;;;;;;14.80;99.90;;;;;;4304111;33;44044;-83
2022/06/09 06:41:42;;;;;;;;;;;14.90;99.90;;;;;;4303950;33;43229;-83
2022/06/09 06:44:09;;;;;;;;;;;14.90;99.90;;;;;;4303481;33;43475;-80
2022/06/09 06:46:41;;;;;;;;;;;14.90;99.90;;;;;;4303757;33;43762;-82
2022/06/09 06:49:09;;;;;;;;;;;14.90;99.90;;;;;;4316665;33;42901;-81
2022/06/09 06:51:36;;;;;;;;;;;14.90;99.90;;;;;;4303968;33;45200;-81
2022/06/09 06:54:11;;;;;;;;;;;14.90;99.90;;;;;;4303677;33;44520;-83
2022/06/09 06:56:38;;;;;;;;;;;14.90;99.90;;;;;;4316838;33;45479;-83
2022/06/09 06:59:08;;;;;;;;;;;14.90;99.90;;;;;;4316694;33;44440;-84
2022/06/09 07:01:35;;;;;;;;;;;14.90;99.90;;;;;;4304197;33;19994;-82
2022/06/09 07:04:03;;;;;;;;;;;15.00;99.90;;;;;;4302956;33;45476;-82
2022/06/09 07:06:33;;;;;;;;;;;14.90;99.90;;;;;;4303506;33;45944;-82
2022/06/09 07:09:00;;;;;;;;;;;15.00;99.90;;;;;;4316472;33;45767;-83
2022/06/09 07:11:33;;;;;;;;;;;15.00;99.90;;;;;;4303381;33;44184;-82
2022/06/09 07:14:04;;;;;;;;;;;15.00;99.90;;;;;;4303715;33;44172;-83
2022/06/09 07:16:33;;;;;;;;;;;15.00;99.90;;;;;;4303359;33;43415;-82
2022/06/09 07:19:16;;;;;;;;;;;15.00;99.90;;;;;;4316481;33;44093;-82
2022/06/09 07:21:43;;;;;;;;;;;15.00;99.90;;;;;;4303317;33;43862;-83
2022/06/09 07:24:10;;;;;;;;;;;15.00;99.90;;;;;;4303051;33;42983;-85
2022/06/09 07:26:38;;;;;;;;;;;15.00;99.90;;;;;;4303366;33;43899;-84
2022/06/09 07:29:05;;;;;;;;;;;15.00;99.90;;;;;;4315870;33;44672;-84
2022/06/09 07:31:32;;;;;;;;;;;15.00;99.90;;;;;;4316336;33;43947;-82
2022/06/09 07:34:00;;;;;;;;;;;15.00;99.90;;;;;;4302656;33;43364;-83
2022/06/09 07:36:28;;;;;;;;;;;15.00;99.90;;;;;;4316038;33;43231;-85
2022/06/09 07:38:55;;;;;;;;;;;15.00;99.90;;;;;;4302584;33;42847;-84
2022/06/09 07:41:22;;;;;;;;;;;15.00;99.90;;;;;;4303326;33;43463;-84
2022/06/09 07:43:59;;;;;;;;;;;15.00;99.90;;;;;;4304146;33;44232;-84
2022/06/09 07:46:27;;;;;;;;;;;15.00;99.90;;;;;;4302469;33;44188;-82
2022/06/09 07:48:54;;;;;;;;;;;15.00;99.90;;;;;;4302640;33;43275;-83
2022/06/09 07:51:21;;;;;;;;;;;15.00;99.90;;;;;;4303046;33;44765;-84
2022/06/09 07:53:51;;;;;;;;;;;15.00;99.90;;;;;;4303165;33;44180;-84
2022/06/09 07:56:18;;;;;;;;;;;15.00;99.90;;;;;;4303256;33;43714;-82
2022/06/09 07:58:45;;;;;;;;;;;15.00;99.90;;;;;;4315871;33;43248;-82
2022/06/09 08:01:13;;;;;;;;;;;15.00;99.90;;;;;;4315605;33;43244;-85
2022/06/09 08:03:41;;;;;;;;;;;15.10;99.90;;;;;;4315661;33;42527;-82
2022/06/09 08:06:09;;;;;;;;;;;15.00;99.90;;;;;;4302645;33;44544;-81
2022/06/09 08:08:55;;;;;;;;;;;15.00;99.90;;;;;;4304627;33;42988;-83
2022/06/09 08:11:23;;;;;;;;;;;15.00;99.90;;;;;;4302840;33;42950;-85
2022/06/09 08:13:51;;;;;;;;;;;15.00;99.90;;;;;;4302415;33;44949;-80
2022/06/09 08:16:18;;;;;;;;;;;15.00;99.90;;;;;;4302325;33;45605;-84
2022/06/09 08:18:45;;;;;;;;;;;15.00;99.90;;;;;;4302611;33;44107;-85
2022/06/09 08:21:12;;;;;;;;;;;15.10;99.90;;;;;;4315924;33;44281;-83
2022/06/09 08:23:57;;;;;;;;;;;15.00;99.90;;;;;;4316083;33;43948;-87
2022/06/09 08:26:24;;;;;;;;;;;15.00;99.90;;;;;;4302720;33;43295;-84
2022/06/09 08:28:52;;;;;;;;;;;15.00;99.90;;;;;;4302298;33;43297;-86
2022/06/09 08:31:19;;;;;;;;;;;15.00;99.90;;;;;;4302861;33;44634;-84
2022/06/09 08:33:46;;;;;;;;;;;15.00;99.90;;;;;;4302599;33;42880;-85
2022/06/09 08:36:13;;;;;;;;;;;15.00;99.90;;;;;;4302614;33;44271;-82
2022/06/09 08:38:41;;;;;;;;;;;15.00;99.90;;;;;;4302410;33;43818;-80
2022/06/09 08:41:17;;;;;;;;;;;15.10;99.90;;;;;;4302216;33;45378;-84
2022/06/09 08:43:54;;;;;;;;;;;15.10;99.90;;;;;;4302912;33;43939;-87
2022/06/09 08:46:29;;;;;;;;;;;15.10;99.90;;;;;;4302343;33;42966;-85
2022/06/09 08:48:59;;;;;;;;;;;15.10;99.90;;;;;;4315703;33;44164;-82
2022/06/09 08:51:26;;;;;;;;;;;15.10;99.90;;;;;;4302504;33;43498;-84
2022/06/09 08:53:57;;;;;;;;;;;15.10;99.90;;;;;;4302047;33;45564;-83
2022/06/09 08:56:27;;;;;;;;;;;15.10;99.90;;;;;;4304005;33;44110;-83
2022/06/09 08:58:59;;;;;;;;;;;15.10;99.90;;;;;;4318218;33;43874;-83
2022/06/09 09:01:40;;;;;;;;;;;15.10;99.90;;;;;;4318483;33;45248;-80
2022/06/09 09:04:08;;;;;;;;;;;15.10;99.90;;;;;;4318539;33;20002;-83
2022/06/09 09:06:41;;;;;;;;;;;15.10;99.90;;;;;;4318402;33;43513;-82
2022/06/09 09:09:13;;;;;;;;;;;15.10;99.90;;;;;;4317875;33;45029;-81
2022/06/09 09:11:41;;;;;;;;;;;15.20;99.90;;;;;;4305158;33;43920;-84
2022/06/09 09:14:13;;;;;;;;;;;15.10;99.90;;;;;;4318025;33;46077;-81
2022/06/09 09:17:00;;;;;;;;;;;15.20;99.90;;;;;;4305268;33;43850;-83
2022/06/09 09:19:51;;;;;;;;;;;15.10;99.90;;;;;;4318331;33;42972;-83
2022/06/09 09:22:30;;;;;;;;;;;15.20;99.90;;;;;;4318381;33;44648;-82
2022/06/09 09:25:06;;;;;;;;;;;15.20;99.90;;;;;;4304762;33;43030;-82
2022/06/09 09:27:55;;;;;;;;;;;15.20;99.90;;;;;;4304608;33;44196;-81
2022/06/09 09:30:27;;;;;;;;;;;15.20;99.90;;;;;;4304819;33;43965;-82
2022/06/09 09:32:57;;;;;;;;;;;15.20;99.90;;;;;;4305300;33;45565;-83
2022/06/09 09:35:30;;;;;;;;;;;15.20;99.90;;;;;;4305416;33;20057;-80
2022/06/09 09:37:58;;;;;;;;;;;15.20;99.90;;;;;;4304782;33;43537;-82
2022/06/09 09:40:45;;;;;;;;;;;15.20;99.90;;;;;;4317777;33;43077;-82
2022/06/09 09:43:19;;;;;;;;;;;15.20;99.90;;;;;;4304838;33;43299;-82
2022/06/09 09:45:49;;;;;;;;;;;15.20;99.90;;;;;;4304759;33;46052;-82
2022/06/09 09:48:16;;;;;;;;;;;15.20;99.90;;;;;;4304246;33;43817;-83
2022/06/09 09:50:49;;;;;;;;;;;15.30;99.90;;;;;;4304617;33;43731;-83
2022/06/09 09:53:19;;;;;;;;;;;15.30;99.90;;;;;;4304858;33;43159;-81
2022/06/09 09:55:57;;;;;;;;;;;15.20;99.90;;;;;;4317990;33;43098;-82
2022/06/09 09:58:27;;;;;;;;;;;15.30;99.90;;;;;;4304763;33;43905;-81
2022/06/09 10:00:56;;;;;;;;;;;15.30;99.90;;;;;;4317154;33;44456;-82
2022/06/09 10:09:27;;;;;;;;;;;15.30;99.90;;;;;;4317482;33;44557;-83
2022/06/09 10:12:16;;;;;;;;;;;15.30;99.90;;;;;;4317125;33;42795;-82
2022/06/09 10:15:03;;;;;;;;;;;15.30;99.90;;;;;;4306197;33;43912;-82
2022/06/09 10:17:31;;;;;;;;;;;15.30;99.90;;;;;;4304435;33;44840;-82
2022/06/09 10:20:18;;;;;;;;;;;15.40;99.90;;;;;;4317549;33;44409;-82
2022/06/09 10:22:56;;;;;;;;;;;15.40;99.90;;;;;;4303708;33;43765;-83
2022/06/09 10:25:33;;;;;;;;;;;15.40;99.90;;;;;;4304335;33;44155;-83
2022/06/09 10:28:04;;;;;;;;;;;15.40;99.90;;;;;;4303760;33;43004;-82
2022/06/09 10:30:40;;;;;;;;;;;15.40;99.90;;;;;;4304389;33;45330;-82
2022/06/09 10:33:18;;;;;;;;;;;15.40;99.90;;;;;;4317511;33;43506;-83
2022/06/09 10:35:49;;;;;;;;;;;15.40;99.90;;;;;;4317394;33;45769;-82
2022/06/09 10:38:25;;;;;;;;;;;15.40;99.90;;;;;;4303991;33;45178;-82
2022/06/09 10:40:55;;;;;;;;;;;15.40;99.90;;;;;;4317112;33;44140;-82
2022/06/09 10:43:32;;;;;;;;;;;15.50;99.90;;;;;;4303958;33;44801;-82
2022/06/09 10:46:00;;;;;;;;;;;15.50;99.90;;;;;;4303817;33;43071;-82
2022/06/09 10:57:11;;;;;;;;;;;15.50;99.90;;;;;;4316732;33;43343;-82
2022/06/09 10:59:38;;;;;;;;;;;15.50;99.90;;;;;;4316621;33;43263;-80
2022/06/09 11:02:11;;;;;;;;;;;15.60;99.90;;;;;;4303085;33;45687;-80
2022/06/09 11:04:38;;;;;;;;;;;15.60;99.90;;;;;;4303497;33;46295;-81
2022/06/09 11:07:24;;;;;;;;;;;15.60;99.90;;;;;;4303157;33;43765;-81
2022/06/09 11:10:05;;;;;;;;;;;15.60;99.90;;;;;;4303871;33;44050;-85
2022/06/09 11:12:40;;;;;;;;;;;15.60;99.90;;;;;;4303686;33;43579;-81
2022/06/09 11:15:27;;;;;;;;;;;15.70;99.90;;;;;;4303052;33;42969;-82
2022/06/09 11:17:54;;;;;;;;;;;15.70;99.90;;;;;;4316536;33;43901;-81
2022/06/09 11:20:31;;;;;;;;;;;15.70;99.90;;;;;;4302921;33;42878;-81
2022/06/09 11:23:15;;;;;;;;;;;15.70;99.90;;;;;;4303487;33;44092;-85
2022/06/09 11:25:45;;;;;;;;;;;15.70;99.90;;;;;;4316333;33;42467;-81
2022/06/09 11:28:25;;;;;;;;;;;15.70;99.90;;;;;;4303144;33;44778;-83
2022/06/09 11:31:08;;;;;;;;;;;15.80;99.90;;;;;;4303648;33;45066;-82
2022/06/09 11:33:44;;;;;;;;;;;15.80;99.90;;;;;;4303331;33;44709;-83
2022/06/09 11:36:20;;;;;;;;;;;15.80;99.90;;;;;;4302760;33;43290;-82
2022/06/09 11:38:50;;;;;;;;;;;15.80;99.90;;;;;;4317180;33;20403;-83
2022/06/09 11:41:25;;;;;;;;;;;15.80;99.90;;;;;;4303111;33;44322;-82
2022/06/09 11:44:20;;;;;;;;;;;15.80;99.90;;;;;;4316056;33;43201;-82
2022/06/09 11:46:49;;;;;;;;;;;15.90;99.90;;;;;;4315746;33;44489;-81
2022/06/09 11:49:38;;;;;;;;;;;15.90;99.90;;;;;;4302616;33;44001;-80
2022/06/09 11:52:15;;;;;;;;;;;15.80;99.90;;;;;;4303894;33;43367;-82
2022/06/09 11:54:48;;;;;;;;;;;15.80;99.90;;;;;;4303090;33;44508;-81
2022/06/09 11:57:25;;;;;;;;;;;15.80;99.90;;;;;;4302630;33;43230;-81
2022/06/09 12:00:06;;;;;;;;;;;15.80;99.90;;;;;;4316262;33;42292;-83
2022/06/09 12:02:36;;;;;;;;;;;15.80;99.90;;;;;;4302579;33;44082;-82
2022/06/09 12:05:19;;;;;;;;;;;15.80;99.90;;;;;;4302456;33;46303;-84
2022/06/09 12:08:08;;;;;;;;;;;15.80;99.90;;;;;;4303139;33;45285;-82
2022/06/09 12:10:55;;;;;;;;;;;15.70;99.90;;;;;;4303126;33;45018;-84
2022/06/09 12:13:24;;;;;;;;;;;15.70;99.90;;;;;;4302737;33;43372;-82
2022/06/09 12:16:05;;;;;;;;;;;15.70;99.90;;;;;;4315749;33;43483;-81
2022/06/09 12:18:45;;;;;;;;;;;15.70;99.90;;;;;;4315812;33;45287;-81
2022/06/09 12:21:25;;;;;;;;;;;15.70;99.90;;;;;;4303117;33;46262;-80
2022/06/09 12:24:13;;;;;;;;;;;15.70;99.90;;;;;;4315461;33;42568;-82
2022/06/09 12:26:43;;;;;;;;;;;15.70;99.90;;;;;;4295309;33;43472;-81
2022/06/09 12:29:16;;;;;;;;;;;15.70;99.90;;;;;;4302270;33;44287;-84
2022/06/09 12:32:02;;;;;;;;;;;15.70;99.90;;;;;;4305068;33;43757;-82
2022/06/09 12:34:39;;;;;;;;;;;15.70;99.90;;;;;;4305280;33;44256;-86
2022/06/09 12:37:21;;;;;;;;;;;15.70;99.90;;;;;;4305741;33;45737;-82
2022/06/09 12:39:54;;;;;;;;;;;15.70;99.90;;;;;;4319368;33;20403;-82
2022/06/09 12:42:54;;;;;;;;;;;15.70;99.90;;;;;;4306068;33;45777;-82
2022/06/09 12:45:30;;;;;;;;;;;15.70;99.90;;;;;;4300690;33;43397;-84
2022/06/09 12:47:59;;;;;;;;;;;15.70;99.90;;;;;;4305473;33;45875;-85
2022/06/09 12:50:29;;;;;;;;;;;15.70;99.90;;;;;;4304983;33;45165;-82
2022/06/09 12:52:57;;;;;;;;;;;15.70;99.90;;;;;;4305128;33;42706;-82
2022/06/09 12:55:26;;;;;;;;;;;15.70;99.90;;;;;;4305597;33;43470;-82
2022/06/09 12:57:58;;;;;;;;;;;15.80;99.90;;;;;;4318366;33;45700;-83
2022/06/09 13:00:36;;;;;;;;;;;15.80;99.90;;;;;;4318317;33;43175;-82
2022/06/09 13:03:14;;;;;;;;;;;15.80;99.90;;;;;;4305336;33;44123;-83
2022/06/09 13:05:44;;;;;;;;;;;15.80;99.90;;;;;;4305554;33;43833;-83
2022/06/09 13:08:18;;;;;;;;;;;15.80;99.90;;;;;;4304780;33;44180;-83
2022/06/09 13:11:03;;;;;;;;;;;15.80;99.90;;;;;;4318355;33;43558;-83
2022/06/09 13:13:39;;;;;;;;;;;15.80;99.90;;;;;;4305438;33;44864;-82
2022/06/09 13:16:11;;;;;;;;;;;15.80;99.90;;;;;;4305248;33;44800;-82
2022/06/09 13:18:48;;;;;;;;;;;15.80;99.90;;;;;;4318267;33;45854;-83
2022/06/09 13:21:20;;;;;;;;;;;15.80;99.90;;;;;;4305034;33;44972;-83
2022/06/09 13:23:49;;;;;;;;;;;15.80;99.90;;;;;;4305130;33;45903;-82
2022/06/09 13:26:26;;;;;;;;;;;15.80;99.90;;;;;;4305261;33;44791;-83
2022/06/09 13:28:57;;;;;;;;;;;15.90;99.90;;;;;;4305110;33;45827;-82
2022/06/09 13:31:30;;;;;;;;;;;15.90;99.90;;;;;;4318062;33;44985;-83
2022/06/09 13:33:59;;;;;;;;;;;15.90;99.90;;;;;;4305095;33;42485;-83
2022/06/09 13:36:35;;;;;;;;;;;15.90;99.90;;;;;;4305252;33;46345;-82
2022/06/09 13:39:22;;;;;;;;;;;15.90;99.90;;;;;;4304486;33;43486;-84
2022/06/09 13:41:51;;;;;;;;;;;15.90;99.90;;;;;;4305319;33;20033;-82
2022/06/09 13:44:25;;;;;;;;;;;16.00;99.90;;;;;;4317785;33;46092;-82
2022/06/09 13:47:01;;;;;;;;;;;16.00;99.90;;;;;;4304763;33;43536;-82
2022/06/09 13:49:38;;;;;;;;;;;16.00;99.90;;;;;;4317838;33;42987;-82
2022/06/09 13:52:21;;;;;;;;;;;16.00;99.90;;;;;;4304724;33;42494;-81
2022/06/09 13:54:49;;;;;;;;;;;16.00;99.90;;;;;;4317786;33;45863;-83
2022/06/09 13:57:18;;;;;;;;;;;16.10;99.90;;;;;;4304331;33;43084;-83
2022/06/09 13:59:46;;;;;;;;;;;16.00;99.90;;;;;;4317129;33;44825;-81
2022/06/09 14:02:15;;;;;;;;;;;16.10;99.90;;;;;;4304604;33;45161;-82
2022/06/09 14:04:43;;;;;;;;;;;16.10;99.90;;;;;;4303981;33;44241;-82
2022/06/09 14:07:15;;;;;;;;;;;16.10;99.90;;;;;;4304368;33;45223;-82
2022/06/09 14:09:42;;;;;;;;;;;16.10;99.90;;;;;;4304031;33;45091;-80
2022/06/09 14:12:11;;;;;;;;;;;16.10;99.90;;;;;;4304916;33;20045;-81
2022/06/09 14:14:42;;;;;;;;;;;16.10;99.90;;;;;;4317659;33;44123;-81
2022/06/09 14:17:24;;;;;;;;;;;16.10;99.90;;;;;;4304031;33;44322;-81
2022/06/09 14:19:55;;;;;;;;;;;16.20;99.90;;;;;;4304278;33;45302;-81
2022/06/09 14:22:28;;;;;;;;;;;16.20;99.90;;;;;;4303845;33;45155;-80
2022/06/09 14:24:55;;;;;;;;;;;16.20;99.90;;;;;;4304181;33;46101;-81
2022/06/09 14:27:25;;;;;;;;;;;16.20;99.90;;;;;;4304328;33;44424;-80
2022/06/09 14:29:55;;;;;;;;;;;16.20;99.90;;;;;;4303874;33;45744;-80
2022/06/09 14:32:22;;;;;;;;;;;16.20;99.90;;;;;;4317170;33;44255;-81
2022/06/09 14:34:49;;;;;;;;;;;16.20;99.90;;;;;;4303513;33;46029;-81
2022/06/09 14:37:22;;;;;;;;;;;16.20;99.90;;;;;;4303829;33;42910;-81
2022/06/09 14:39:50;;;;;;;;;;;16.20;99.90;;;;;;4303514;33;45824;-81
2022/06/09 14:42:18;;;;;;;;;;;16.20;99.90;;;;;;4304031;33;43997;-81
2022/06/09 14:44:46;;;;;;;;;;;16.20;99.90;;;;;;4316976;33;42939;-81
2022/06/09 14:47:18;;;;;;;;;;;16.20;99.90;;;;;;4303952;33;43968;-81
2022/06/09 14:49:48;;;;;;;;;;;16.30;99.90;;;;;;4304054;33;43254;-81
2022/06/09 14:52:16;;;;;;;;;;;16.30;99.90;;;;;;4317022;33;41577;-81
2022/06/09 14:54:44;;;;;;;;;;;16.20;99.90;;;;;;4316101;33;45920;-81
2022/06/09 14:57:12;;;;;;;;;;;16.30;99.90;;;;;;4316823;33;43956;-81
2022/06/09 14:59:40;;;;;;;;;;;16.30;99.90;;;;;;4316448;33;43902;-81
2022/06/09 15:02:16;;;;;;;;;;;16.30;99.90;;;;;;4316138;33;45189;-81
2022/06/09 15:04:44;;;;;;;;;;;16.30;99.90;;;;;;4303395;33;43482;-81
2022/06/09 15:07:14;;;;;;;;;;;16.30;99.90;;;;;;4303445;33;45348;-81